Time;durP1;ratioP1;P1;durP2;ratioP2;P2;SDS_P1;SDS_P2;PMS_P1;PMS_P2;Temp;Humidity;BMP_temperature;BMP_pressure;BME280_temperature;BME280_humidity;BME280_pressure;Samples;Min_cycle;Max_cycle;Signal;HPM_P1;HPM_P2
2023/05/03 00:01:47;;;;;;;8.15;4.70;;;;;;;;;;6287993;22;20417;-78
2023/05/03 00:04:33;;;;;;;8.75;4.30;;;;;;;;;;6286727;22;20020;-79
2023/05/03 00:07:18;;;;;;;7.07;3.95;;;;;;;;;;6287912;22;20346;-79
2023/05/03 00:10:03;;;;;;;8.80;4.53;;;;;;;;;;6287875;22;20015;-79
2023/05/03 00:12:51;;;;;;;7.05;4.20;;;;;;;;;;6287981;22;20015;-80
2023/05/03 00:15:37;;;;;;;7.57;3.83;;;;;;;;;;6288182;22;20011;-79
2023/05/03 00:18:23;;;;;;;6.28;3.38;;;;;;;;;;6287697;22;20334;-79
2023/05/03 00:21:08;;;;;;;5.82;3.90;;;;;;;;;;6287967;22;20433;-79
2023/05/03 00:23:54;;;;;;;12.13;5.28;;;;;;;;;;6287746;22;20330;-80
2023/05/03 00:26:39;;;;;;;7.35;4.32;;;;;;;;;;6287733;22;20020;-79
2023/05/03 00:29:25;;;;;;;6.72;3.95;;;;;;;;;;6278962;22;20023;-79
2023/05/03 00:32:11;;;;;;;6.45;3.33;;;;;;;;;;6286288;22;20015;-79
2023/05/03 00:34:57;;;;;;;6.28;3.78;;;;;;;;;;6287661;22;20019;-79
2023/05/03 00:37:42;;;;;;;4.47;3.10;;;;;;;;;;6287609;22;20015;-79
2023/05/03 00:40:27;;;;;;;5.25;3.30;;;;;;;;;;6287687;22;20020;-79
2023/05/03 00:43:13;;;;;;;6.25;3.17;;;;;;;;;;6286472;22;20020;-80
2023/05/03 00:46:00;;;;;;;7.43;3.45;;;;;;;;;;6287447;22;20020;-79
2023/05/03 00:48:48;;;;;;;11.02;4.90;;;;;;;;;;6288064;22;20023;-79
2023/05/03 00:51:34;;;;;;;7.35;4.30;;;;;;;;;;6286415;22;20019;-79
2023/05/03 00:54:20;;;;;;;7.68;4.60;;;;;;;;;;6286191;22;20015;-79
2023/05/03 00:57:09;;;;;;;11.15;4.68;;;;;;;;;;6286298;22;20012;-79
2023/05/03 00:59:56;;;;;;;11.45;5.25;;;;;;;;;;6264542;22;20023;-79
2023/05/03 01:02:42;;;;;;;6.22;3.50;;;;;;;;;;6286644;22;20020;-78
2023/05/03 01:05:36;;;;;;;8.45;3.78;;;;;;;;;;6287119;22;20019;-79
2023/05/03 01:08:34;;;;;;;7.65;3.95;;;;;;;;;;6286423;22;20349;-79
2023/05/03 01:11:44;;;;;;;8.80;4.18;;;;;;;;;;6285868;22;20020;-79
2023/05/03 01:14:47;;;;;;;9.35;3.53;;;;;;;;;;6286167;22;20019;-79
2023/05/03 01:17:38;;;;;;;3.78;2.40;;;;;;;;;;6287455;22;20119;-79
2023/05/03 01:20:29;;;;;;;7.03;3.00;;;;;;;;;;6286382;22;20020;-79
2023/05/03 01:23:30;;;;;;;4.10;2.42;;;;;;;;;;6287393;22;20023;-80
2023/05/03 01:26:23;;;;;;;4.38;2.58;;;;;;;;;;6286185;22;20019;-79
2023/05/03 01:29:08;;;;;;;4.70;2.70;;;;;;;;;;6279822;22;20020;-80
2023/05/03 01:32:02;;;;;;;7.55;2.35;;;;;;;;;;6285756;22;20020;-80
2023/05/03 01:35:01;;;;;;;4.43;2.35;;;;;;;;;;6287011;22;20020;-80
2023/05/03 01:37:47;;;;;;;6.68;2.17;;;;;;;;;;6287016;22;20016;-80
2023/05/03 01:40:41;;;;;;;4.15;1.95;;;;;;;;;;6286657;22;20016;-80
2023/05/03 01:43:27;;;;;;;3.55;2.38;;;;;;;;;;6286874;22;20430;-77
2023/05/03 01:46:13;;;;;;;3.45;1.88;;;;;;;;;;6285802;22;20345;-78
2023/05/03 01:48:58;;;;;;;2.55;1.73;;;;;;;;;;6285734;22;20019;-79
2023/05/03 01:51:43;;;;;;;4.78;1.98;;;;;;;;;;6287128;22;20016;-77
2023/05/03 01:54:29;;;;;;;4.45;2.10;;;;;;;;;;6287240;22;20019;-80
2023/05/03 01:57:16;;;;;;;3.15;1.70;;;;;;;;;;6287169;22;20441;-78
2023/05/03 02:00:01;;;;;;;2.35;1.77;;;;;;;;;;6285854;22;20353;-81
2023/05/03 02:02:47;;;;;;;4.85;1.88;;;;;;;;;;6285744;22;20020;-78
2023/05/03 02:05:32;;;;;;;2.95;1.80;;;;;;;;;;6286016;22;20016;-78
2023/05/03 02:08:19;;;;;;;5.63;2.10;;;;;;;;;;6285506;22;20023;-78
2023/05/03 02:11:05;;;;;;;3.78;1.95;;;;;;;;;;6287033;22;20023;-78
2023/05/03 02:13:50;;;;;;;2.80;1.55;;;;;;;;;;6286520;22;20016;-78
2023/05/03 02:16:36;;;;;;;3.17;1.83;;;;;;;;;;6285708;22;20016;-78
2023/05/03 02:19:21;;;;;;;4.93;1.75;;;;;;;;;;6285626;22;20012;-78
2023/05/03 02:22:07;;;;;;;7.95;2.20;;;;;;;;;;6264172;22;20433;-78
2023/05/03 02:24:52;;;;;;;2.58;1.75;;;;;;;;;;6288864;22;20020;-78
2023/05/03 02:27:38;;;;;;;2.03;1.35;;;;;;;;;;6287570;22;20012;-79
2023/05/03 02:30:23;;;;;;;2.95;1.88;;;;;;;;;;6287666;22;20342;-78
2023/05/03 02:33:09;;;;;;;3.03;2.00;;;;;;;;;;6288588;22;20015;-78
2023/05/03 02:35:57;;;;;;;4.63;2.10;;;;;;;;;;6287466;22;20346;-78
2023/05/03 02:38:41;;;;;;;2.67;1.80;;;;;;;;;;6288690;22;20019;-78
2023/05/03 02:41:27;;;;;;;2.83;1.80;;;;;;;;;;6287831;22;20019;-78
2023/05/03 02:44:13;;;;;;;1.73;1.63;;;;;;;;;;6289723;22;20440;-78
2023/05/03 02:46:58;;;;;;;4.10;1.90;;;;;;;;;;6290980;22;20020;-78
2023/05/03 02:49:43;;;;;;;3.05;1.70;;;;;;;;;;6290168;22;20016;-77
2023/05/03 02:52:28;;;;;;;3.03;2.10;;;;;;;;;;6290612;22;20019;-78
2023/05/03 02:55:15;;;;;;;2.15;1.73;;;;;;;;;;6290590;22;20437;-78
2023/05/03 02:58:03;;;;;;;4.18;1.80;;;;;;;;;;6268135;22;20447;-79
2023/05/03 03:00:49;;;;;;;3.50;1.80;;;;;;;;;;6290693;22;20019;-77
2023/05/03 03:03:34;;;;;;;2.33;1.63;;;;;;;;;;6288986;22;20472;-78
2023/05/03 03:06:19;;;;;;;2.88;1.92;;;;;;;;;;6288424;22;20019;-78
2023/05/03 03:09:05;;;;;;;3.72;2.25;;;;;;;;;;6287200;22;20345;-78
2023/05/03 03:11:52;;;;;;;3.97;2.00;;;;;;;;;;6286996;22;20337;-78
2023/05/03 03:14:38;;;;;;;3.30;2.00;;;;;;;;;;6287182;22;20019;-78
2023/05/03 03:17:23;;;;;;;2.72;1.85;;;;;;;;;;6289157;22;20015;-78
2023/05/03 03:20:12;;;;;;;6.80;2.30;;;;;;;;;;6288788;22;20019;-78
2023/05/03 03:23:01;;;;;;;2.95;2.10;;;;;;;;;;6287006;22;20011;-78
2023/05/03 03:25:46;;;;;;;4.93;2.22;;;;;;;;;;6286933;22;20016;-78
2023/05/03 03:28:33;;;;;;;5.15;2.50;;;;;;;;;;6287051;22;20020;-78
2023/05/03 03:31:24;;;;;;;4.88;2.50;;;;;;;;;;6286760;22;20015;-78
2023/05/03 03:34:12;;;;;;;3.72;2.00;;;;;;;;;;6286651;22;20016;-78
2023/05/03 03:36:57;;;;;;;2.97;1.92;;;;;;;;;;6286986;22;20007;-78
2023/05/03 03:39:45;;;;;;;3.80;2.00;;;;;;;;;;6286962;22;20453;-78
2023/05/03 03:42:31;;;;;;;4.70;2.05;;;;;;;;;;6288187;22;20015;-78
2023/05/03 03:45:16;;;;;;;3.25;1.92;;;;;;;;;;6286975;22;20015;-78
2023/05/03 03:48:02;;;;;;;2.33;1.90;;;;;;;;;;6285737;22;20438;-78
2023/05/03 03:50:48;;;;;;;4.10;1.75;;;;;;;;;;6286820;22;20020;-78
2023/05/03 03:53:35;;;;;;;8.13;2.70;;;;;;;;;;6286910;22;20020;-78
2023/05/03 03:56:20;;;;;;;3.45;2.20;;;;;;;;;;6288073;22;20011;-78
2023/05/03 03:59:08;;;;;;;2.88;2.05;;;;;;;;;;6286445;22;20019;-78
2023/05/03 04:01:54;;;;;;;3.60;2.10;;;;;;;;;;6286668;22;20016;-78
2023/05/03 04:04:39;;;;;;;3.88;2.22;;;;;;;;;;6287561;22;20345;-79
2023/05/03 04:07:25;;;;;;;6.75;2.95;;;;;;;;;;6286274;22;20023;-79
2023/05/03 04:10:11;;;;;;;6.82;3.60;;;;;;;;;;6286713;22;20016;-79
2023/05/03 04:12:58;;;;;;;8.40;3.72;;;;;;;;;;6286527;22;20020;-79
2023/05/03 04:15:44;;;;;;;9.63;3.83;;;;;;;;;;6286500;22;20442;-79
2023/05/03 04:18:30;;;;;;;7.88;3.50;;;;;;;;;;6286607;22;20016;-79
2023/05/03 04:21:18;;;;;;;11.88;3.97;;;;;;;;;;6286631;22;20015;-79
2023/05/03 04:24:06;;;;;;;17.58;4.55;;;;;;;;;;6285898;22;20019;-79
2023/05/03 04:26:51;;;;;;;9.52;4.30;;;;;;;;;;6286518;22;20016;-78
2023/05/03 04:29:44;;;;;;;7.63;3.63;;;;;;;;;;6285385;22;20015;-78
2023/05/03 04:32:35;;;;;;;5.35;3.13;;;;;;;;;;6286144;22;20024;-80
2023/05/03 04:35:22;;;;;;;6.60;3.40;;;;;;;;;;6264771;22;20020;-79
2023/05/03 04:38:08;;;;;;;6.65;2.88;;;;;;;;;;6288009;22;20019;-79
2023/05/03 04:40:55;;;;;;;5.10;2.58;;;;;;;;;;6287599;22;20020;-79
2023/05/03 04:43:41;;;;;;;6.88;3.10;;;;;;;;;;6286133;22;20019;-79
2023/05/03 04:46:26;;;;;;;5.35;2.85;;;;;;;;;;6285638;22;20020;-79
2023/05/03 04:49:12;;;;;;;4.68;2.28;;;;;;;;;;6286001;22;20016;-79
2023/05/03 04:51:58;;;;;;;5.45;2.20;;;;;;;;;;6286245;22;20015;-79
2023/05/03 04:54:44;;;;;;;3.15;2.10;;;;;;;;;;6287543;22;20016;-80
2023/05/03 04:57:31;;;;;;;5.03;2.45;;;;;;;;;;6286242;22;20342;-80
2023/05/03 05:00:16;;;;;;;3.20;2.33;;;;;;;;;;6285503;22;20020;-79
2023/05/03 05:03:10;;;;;;;3.83;2.20;;;;;;;;;;6286326;22;20442;-79
2023/05/03 05:05:56;;;;;;;4.93;2.45;;;;;;;;;;6286069;22;20023;-79
2023/05/03 05:08:47;;;;;;;6.95;2.50;;;;;;;;;;6286098;22;20016;-79
2023/05/03 05:11:33;;;;;;;4.93;2.35;;;;;;;;;;6285848;22;20345;-79
2023/05/03 05:14:18;;;;;;;6.80;2.65;;;;;;;;;;6285462;22;20071;-79
2023/05/03 05:17:04;;;;;;;5.55;2.50;;;;;;;;;;6285364;22;20016;-79
2023/05/03 05:19:50;;;;;;;4.53;2.42;;;;;;;;;;6287678;22;20020;-79
2023/05/03 05:22:36;;;;;;;3.90;2.55;;;;;;;;;;6285980;22;20023;-79
2023/05/03 05:25:26;;;;;;;6.55;2.63;;;;;;;;;;6285737;22;20019;-79
2023/05/03 05:28:12;;;;;;;5.72;3.60;;;;;;;;;;6286098;22;20414;-78
2023/05/03 05:30:59;;;;;;;3.30;1.90;;;;;;;;;;6285778;22;20019;-78
2023/05/03 05:33:44;;;;;;;4.63;2.80;;;;;;;;;;6286094;22;20345;-79
2023/05/03 05:36:30;;;;;;;5.68;2.40;;;;;;;;;;6262589;22;20453;-79
2023/05/03 05:39:16;;;;;;;7.93;3.63;;;;;;;;;;6284017;22;20024;-78
2023/05/03 05:42:03;;;;;;;3.08;1.98;;;;;;;;;;6284932;22;20015;-78
2023/05/03 05:44:49;;;;;;;5.97;3.40;;;;;;;;;;6286969;22;20434;-78
2023/05/03 05:47:34;;;;;;;6.70;3.30;;;;;;;;;;6285933;22;20015;-78
2023/05/03 05:50:20;;;;;;;3.28;2.15;;;;;;;;;;6285796;22;20011;-79
2023/05/03 05:53:11;;;;;;;4.38;2.55;;;;;;;;;;6285656;22;20020;-79
2023/05/03 05:56:03;;;;;;;7.38;2.33;;;;;;;;;;6285719;22;20434;-79
2023/05/03 05:58:51;;;;;;;5.55;2.33;;;;;;;;;;6288785;22;20015;-79
2023/05/03 06:01:40;;;;;;;3.10;2.22;;;;;;;;;;6287766;22;20442;-79
2023/05/03 06:04:28;;;;;;;2.38;1.80;;;;;;;;;;6288385;22;20012;-79
2023/05/03 06:07:17;;;;;;;3.97;1.92;;;;;;;;;;6287698;22;20020;-79
2023/05/03 06:10:03;;;;;;;4.82;1.80;;;;;;;;;;6287856;22;20020;-79
2023/05/03 06:12:49;;;;;;;5.03;1.77;;;;;;;;;;6287465;22;20019;-79
2023/05/03 06:15:42;;;;;;;3.25;1.73;;;;;;;;;;6287558;22;20015;-79
2023/05/03 06:18:27;;;;;;;2.67;1.75;;;;;;;;;;6288031;22;20015;-77
2023/05/03 06:21:16;;;;;;;2.92;1.48;;;;;;;;;;6288863;22;20023;-78
2023/05/03 06:24:01;;;;;;;2.65;1.70;;;;;;;;;;6288923;22;20437;-77
2023/05/03 06:26:47;;;;;;;2.28;1.45;;;;;;;;;;6286990;22;20019;-77
2023/05/03 06:29:34;;;;;;;6.22;2.30;;;;;;;;;;6287254;22;20019;-77
2023/05/03 06:32:20;;;;;;;2.50;1.65;;;;;;;;;;6288822;22;20016;-77
2023/05/03 06:35:06;;;;;;;6.35;1.65;;;;;;;;;;6287654;22;20074;-76
2023/05/03 06:37:57;;;;;;;1.77;1.27;;;;;;;;;;6287753;22;20020;-76
2023/05/03 06:40:48;;;;;;;2.03;1.55;;;;;;;;;;6287208;22;20019;-77
2023/05/03 06:43:38;;;;;;;2.58;1.70;;;;;;;;;;6287686;22;20019;-77
2023/05/03 06:46:26;;;;;;;2.90;1.73;;;;;;;;;;6287470;22;20441;-76
2023/05/03 06:49:11;;;;;;;3.50;2.15;;;;;;;;;;6287180;22;20015;-77
2023/05/03 06:51:57;;;;;;;3.97;2.25;;;;;;;;;;6288084;22;20353;-77
2023/05/03 06:54:43;;;;;;;4.10;2.05;;;;;;;;;;6287051;22;20016;-78
2023/05/03 06:57:27;;;;;;;2.15;1.42;;;;;;;;;;6288710;22;20012;-78
2023/05/03 07:00:14;;;;;;;6.13;2.15;;;;;;;;;;6288178;22;20012;-78
2023/05/03 07:03:04;;;;;;;3.03;1.65;;;;;;;;;;6288443;22;20012;-78
2023/05/03 07:05:49;;;;;;;4.72;2.30;;;;;;;;;;6287445;22;20349;-79
2023/05/03 07:08:40;;;;;;;4.82;1.60;;;;;;;;;;6287797;22;20426;-77
2023/05/03 07:11:30;;;;;;;5.72;2.20;;;;;;;;;;6286223;22;20019;-77
2023/05/03 07:14:16;;;;;;;10.23;2.20;;;;;;;;;;6286453;22;20019;-78
2023/05/03 07:17:02;;;;;;;4.07;1.60;;;;;;;;;;6287985;22;20015;-78
2023/05/03 07:19:53;;;;;;;4.20;2.17;;;;;;;;;;6288210;22;20015;-77
2023/05/03 07:22:37;;;;;;;5.10;2.97;;;;;;;;;;6286944;22;20020;-78
2023/05/03 07:25:23;;;;;;;2.83;1.75;;;;;;;;;;6288306;22;20334;-77
2023/05/03 07:28:09;;;;;;;3.03;1.80;;;;;;;;;;6285311;22;20023;-78
2023/05/03 07:30:55;;;;;;;4.22;2.22;;;;;;;;;;6288404;22;20020;-77
2023/05/03 07:33:40;;;;;;;4.53;1.80;;;;;;;;;;6288266;22;20015;-77
2023/05/03 07:36:26;;;;;;;3.70;2.20;;;;;;;;;;6288469;22;20020;-77
2023/05/03 07:39:12;;;;;;;4.38;2.00;;;;;;;;;;6288781;22;20012;-78
2023/05/03 07:41:58;;;;;;;2.95;1.42;;;;;;;;;;6288058;22;20014;-77
2023/05/03 07:44:43;;;;;;;2.50;1.60;;;;;;;;;;6288007;22;20016;-78
2023/05/03 07:47:36;;;;;;;2.70;1.58;;;;;;;;;;6288440;22;20438;-78
2023/05/03 07:50:21;;;;;;;2.17;1.50;;;;;;;;;;6286878;22;20019;-78
2023/05/03 07:53:06;;;;;;;3.90;2.08;;;;;;;;;;6288135;22;20023;-79
2023/05/03 07:55:55;;;;;;;4.32;1.90;;;;;;;;;;6288003;22;20433;-79
2023/05/03 07:58:40;;;;;;;5.85;2.15;;;;;;;;;;6287935;22;20338;-79
2023/05/03 08:01:30;;;;;;;2.10;1.67;;;;;;;;;;6287818;22;20015;-79
2023/05/03 08:04:15;;;;;;;8.13;1.75;;;;;;;;;;6287761;22;20023;-79
2023/05/03 08:07:06;;;;;;;2.05;1.33;;;;;;;;;;6287796;22;20020;-79
2023/05/03 08:10:01;;;;;;;3.58;1.80;;;;;;;;;;6287911;22;20019;-79
2023/05/03 08:12:46;;;;;;;4.25;1.40;;;;;;;;;;6287555;22;20019;-79
2023/05/03 08:15:38;;;;;;;2.55;1.80;;;;;;;;;;6287609;22;20019;-78
2023/05/03 08:18:29;;;;;;;5.57;1.70;;;;;;;;;;6287712;22;20015;-77
2023/05/03 08:21:16;;;;;;;4.03;2.28;;;;;;;;;;6287497;22;20016;-77
2023/05/03 08:24:04;;;;;;;6.28;2.28;;;;;;;;;;6287647;22;20019;-79
2023/05/03 08:26:55;;;;;;;3.05;1.90;;;;;;;;;;6281852;22;20440;-78
2023/05/03 08:29:41;;;;;;;4.03;2.20;;;;;;;;;;6278760;22;20020;-78
2023/05/03 08:32:27;;;;;;;4.05;2.50;;;;;;;;;;6287968;22;20020;-77
2023/05/03 08:35:14;;;;;;;2.80;1.63;;;;;;;;;;6286521;22;20016;-78
2023/05/03 08:38:04;;;;;;;3.97;2.28;;;;;;;;;;6287595;22;20016;-78
2023/05/03 08:40:58;;;;;;;6.20;1.90;;;;;;;;;;6287616;22;20015;-78
2023/05/03 08:43:52;;;;;;;4.20;1.75;;;;;;;;;;6287805;22;20015;-79
2023/05/03 08:46:37;;;;;;;3.75;1.75;;;;;;;;;;6287786;22;20019;-79
2023/05/03 08:49:24;;;;;;;3.05;1.90;;;;;;;;;;6287778;22;20019;-78
2023/05/03 08:52:12;;;;;;;5.80;1.73;;;;;;;;;;6287654;22;20019;-79
2023/05/03 08:54:58;;;;;;;6.15;2.42;;;;;;;;;;6287456;22;20015;-75
2023/05/03 08:57:48;;;;;;;2.85;1.48;;;;;;;;;;6287391;22;20012;-78
2023/05/03 09:00:35;;;;;;;3.15;1.83;;;;;;;;;;6287138;22;20011;-79
2023/05/03 09:03:25;;;;;;;5.68;2.25;;;;;;;;;;6287589;22;20019;-77
2023/05/03 09:06:24;;;;;;;6.20;1.63;;;;;;;;;;6287568;22;20020;-75
2023/05/03 09:09:11;;;;;;;3.08;1.85;;;;;;;;;;6287057;22;20015;-75
2023/05/03 09:12:03;;;;;;;5.00;2.22;;;;;;;;;;6287338;22;20342;-76
2023/05/03 09:14:49;;;;;;;4.57;2.30;;;;;;;;;;6287014;22;20020;-76
2023/05/03 09:17:35;;;;;;;2.70;1.58;;;;;;;;;;6287191;22;20016;-76
2023/05/03 09:20:34;;;;;;;4.45;2.05;;;;;;;;;;6287174;22;20016;-76
2023/05/03 09:23:25;;;;;;;6.00;2.17;;;;;;;;;;6287094;22;20019;-75
2023/05/03 09:26:33;;;;;;;7.68;3.17;;;;;;;;;;6287498;22;20345;-76
2023/05/03 09:29:31;;;;;;;4.95;2.00;;;;;;;;;;6279163;22;20016;-78
2023/05/03 09:32:17;;;;;;;4.85;2.00;;;;;;;;;;6287035;22;20023;-79
2023/05/03 09:35:14;;;;;;;5.07;2.40;;;;;;;;;;6287314;22;20062;-80
2023/05/03 09:38:05;;;;;;;5.40;2.28;;;;;;;;;;6287579;22;20016;-79
2023/05/03 09:40:50;;;;;;;2.95;2.05;;;;;;;;;;6287367;22;20020;-78
2023/05/03 09:43:49;;;;;;;4.40;2.42;;;;;;;;;;6287257;22;20019;-77
2023/05/03 09:46:37;;;;;;;5.80;2.10;;;;;;;;;;6287119;22;20019;-80
2023/05/03 09:49:23;;;;;;;4.22;2.25;;;;;;;;;;6287123;22;20015;-80
2023/05/03 09:52:09;;;;;;;3.97;2.45;;;;;;;;;;6287431;22;20019;-78
2023/05/03 09:54:56;;;;;;;3.35;2.30;;;;;;;;;;6287259;22;20019;-78
2023/05/03 09:57:45;;;;;;;6.82;3.95;;;;;;;;;;6286963;22;20008;-80
2023/05/03 10:00:42;;;;;;;3.33;2.03;;;;;;;;;;6286186;22;20432;-77
2023/05/03 10:03:38;;;;;;;2.00;1.33;;;;;;;;;;6287045;22;20016;-74
2023/05/03 10:06:31;;;;;;;4.18;2.60;;;;;;;;;;6286873;22;20016;-75
2023/05/03 10:09:56;;;;;;;4.30;2.60;;;;;;;;;;6287311;22;20015;-77
2023/05/03 10:12:44;;;;;;;6.07;3.35;;;;;;;;;;6270895;22;20016;-76
2023/05/03 10:15:30;;;;;;;5.47;2.50;;;;;;;;;;6287101;22;20016;-75
2023/05/03 10:18:19;;;;;;;4.47;2.30;;;;;;;;;;6287109;22;20124;-76
2023/05/03 10:21:13;;;;;;;4.47;2.45;;;;;;;;;;6287423;22;20016;-76
2023/05/03 10:24:12;;;;;;;5.90;2.20;;;;;;;;;;6287336;22;20325;-76
2023/05/03 10:27:06;;;;;;;5.95;3.08;;;;;;;;;;6286860;22;20020;-77
2023/05/03 10:29:54;;;;;;;6.95;2.15;;;;;;;;;;6276647;22;20019;-77
2023/05/03 10:32:41;;;;;;;8.77;2.00;;;;;;;;;;6286732;22;20019;-76
2023/05/03 10:35:28;;;;;;;3.58;2.08;;;;;;;;;;6286916;22;20023;-77
2023/05/03 10:38:20;;;;;;;4.82;2.42;;;;;;;;;;6286911;22;20011;-76
2023/05/03 10:41:10;;;;;;;7.22;3.80;;;;;;;;;;6287079;22;20019;-76
2023/05/03 10:43:56;;;;;;;9.30;2.75;;;;;;;;;;6286968;22;20012;-77
2023/05/03 10:46:47;;;;;;;5.45;3.25;;;;;;;;;;6288597;22;20019;-75
2023/05/03 10:49:38;;;;;;;5.30;1.98;;;;;;;;;;6289051;22;20015;-74
2023/05/03 10:52:38;;;;;;;3.38;2.17;;;;;;;;;;6288664;22;20433;-75
2023/05/03 10:55:25;;;;;;;4.05;2.10;;;;;;;;;;6288719;22;20015;-73
2023/05/03 10:58:17;;;;;;;5.93;2.53;;;;;;;;;;6289140;22;20012;-75
2023/05/03 11:01:13;;;;;;;5.72;3.25;;;;;;;;;;6287430;22;20019;-75
2023/05/03 11:04:15;;;;;;;5.72;3.28;;;;;;;;;;6288755;22;20429;-76
2023/05/03 11:07:06;;;;;;;21.00;11.73;;;;;;;;;;6288505;22;20341;-74
2023/05/03 11:09:57;;;;;;;5.05;2.38;;;;;;;;;;6288421;22;20023;-76
2023/05/03 11:12:43;;;;;;;7.43;2.70;;;;;;;;;;6288714;22;20019;-73
2023/05/03 11:15:30;;;;;;;4.72;2.00;;;;;;;;;;6288327;22;20438;-77
2023/05/03 11:18:16;;;;;;;6.15;2.60;;;;;;;;;;6287596;22;20011;-74
2023/05/03 11:21:06;;;;;;;3.65;2.63;;;;;;;;;;6288241;22;20019;-75
2023/05/03 11:23:52;;;;;;;7.03;2.63;;;;;;;;;;6288767;22;20341;-75
2023/05/03 11:26:44;;;;;;;10.93;3.38;;;;;;;;;;6288216;22;20020;-75
2023/05/03 11:29:31;;;;;;;6.80;2.47;;;;;;;;;;6279524;22;20074;-74
2023/05/03 11:32:26;;;;;;;8.93;2.50;;;;;;;;;;6288244;22;20012;-75
2023/05/03 11:35:12;;;;;;;8.07;2.40;;;;;;;;;;6288344;22;20016;-75
2023/05/03 11:37:58;;;;;;;7.55;4.47;;;;;;;;;;6288240;22;20015;-75
2023/05/03 11:40:44;;;;;;;8.45;2.60;;;;;;;;;;6288435;22;20012;-74
2023/05/03 11:43:32;;;;;;;3.83;1.98;;;;;;;;;;6288346;22;20016;-77
2023/05/03 11:46:24;;;;;;;5.18;2.45;;;;;;;;;;6288833;22;20020;-75
2023/05/03 11:49:17;;;;;;;5.03;2.60;;;;;;;;;;6288478;22;20020;-78
2023/05/03 11:52:06;;;;;;;5.00;2.20;;;;;;;;;;6288680;22;20016;-78
2023/05/03 11:54:56;;;;;;;8.07;2.72;;;;;;;;;;6288564;22;20016;-78
2023/05/03 11:57:45;;;;;;;6.80;4.25;;;;;;;;;;6288221;22;20434;-75
2023/05/03 12:00:35;;;;;;;11.02;2.78;;;;;;;;;;6268589;22;20337;-77
2023/05/03 12:03:31;;;;;;;3.80;2.05;;;;;;;;;;6290350;22;20310;-77
2023/05/03 12:06:17;;;;;;;8.90;2.38;;;;;;;;;;6289515;22;20019;-76
2023/05/03 12:09:12;;;;;;;4.47;2.08;;;;;;;;;;6290522;22;20015;-78
2023/05/03 12:11:59;;;;;;;5.57;2.20;;;;;;;;;;6291445;22;20023;-78
2023/05/03 12:14:57;;;;;;;7.60;2.00;;;;;;;;;;6290096;22;20020;-76
2023/05/03 12:17:55;;;;;;;4.57;2.20;;;;;;;;;;6287872;22;20015;-75
2023/05/03 12:20:40;;;;;;;4.70;2.20;;;;;;;;;;6288679;22;20019;-76
2023/05/03 12:23:26;;;;;;;4.70;2.92;;;;;;;;;;6287088;22;20015;-75
2023/05/03 12:26:12;;;;;;;4.25;2.47;;;;;;;;;;6289030;22;20023;-78
2023/05/03 12:28:56;;;;;;;2.90;2.00;;;;;;;;;;6281364;22;20023;-78
2023/05/03 12:31:46;;;;;;;5.32;2.30;;;;;;;;;;6290907;22;20019;-78
2023/05/03 12:34:32;;;;;;;8.10;2.08;;;;;;;;;;6289754;22;20016;-79
2023/05/03 12:37:17;;;;;;;7.60;2.97;;;;;;;;;;6287435;22;20023;-77
2023/05/03 12:40:08;;;;;;;4.72;3.15;;;;;;;;;;6287850;22;20019;-78
2023/05/03 12:42:56;;;;;;;3.72;2.45;;;;;;;;;;6288786;22;20015;-78
2023/05/03 12:45:41;;;;;;;4.97;2.70;;;;;;;;;;6288380;22;20015;-78
2023/05/03 12:48:29;;;;;;;6.47;2.70;;;;;;;;;;6288935;22;20366;-79
2023/05/03 12:51:15;;;;;;;4.15;2.45;;;;;;;;;;6287645;22;20019;-77
2023/05/03 12:54:05;;;;;;;5.50;2.70;;;;;;;;;;6287832;22;20349;-78
2023/05/03 12:56:58;;;;;;;5.50;2.30;;;;;;;;;;6288609;22;20015;-79
2023/05/03 12:59:43;;;;;;;3.45;2.05;;;;;;;;;;6289148;22;20016;-77
2023/05/03 13:02:29;;;;;;;5.15;2.45;;;;;;;;;;6287993;22;20075;-76
2023/05/03 13:05:16;;;;;;;7.47;2.42;;;;;;;;;;6288145;22;20015;-77
2023/05/03 13:08:02;;;;;;;4.03;2.10;;;;;;;;;;6288146;22;20015;-80
2023/05/03 13:10:52;;;;;;;4.28;2.55;;;;;;;;;;6290340;22;20012;-80
2023/05/03 13:13:39;;;;;;;3.65;2.05;;;;;;;;;;6289487;22;20015;-79
2023/05/03 13:16:25;;;;;;;3.45;2.30;;;;;;;;;;6289193;22;20369;-79
2023/05/03 13:19:15;;;;;;;7.07;2.40;;;;;;;;;;6289448;22;20015;-79
2023/05/03 13:22:01;;;;;;;4.47;2.50;;;;;;;;;;6286620;22;20020;-80
2023/05/03 13:24:51;;;;;;;4.85;2.40;;;;;;;;;;6287942;22;20019;-80
2023/05/03 13:27:38;;;;;;;5.55;2.80;;;;;;;;;;6286405;22;20019;-82
2023/05/03 13:30:25;;;;;;;4.60;2.35;;;;;;;;;;6288557;22;20024;-80
2023/05/03 13:33:15;;;;;;;4.07;2.35;;;;;;;;;;6288220;22;20020;-80
2023/05/03 13:36:01;;;;;;;8.73;2.40;;;;;;;;;;6289226;22;20020;-80
2023/05/03 13:38:52;;;;;;;4.22;2.28;;;;;;;;;;6288441;22;20016;-80
2023/05/03 13:41:40;;;;;;;9.27;2.25;;;;;;;;;;6287225;22;20023;-79
2023/05/03 13:44:25;;;;;;;11.02;2.30;;;;;;;;;;6287823;22;20020;-77
2023/05/03 13:47:16;;;;;;;5.18;3.05;;;;;;;;;;6289718;22;20016;-77
2023/05/03 13:50:02;;;;;;;7.80;3.05;;;;;;;;;;6291097;22;20011;-77
2023/05/03 13:52:48;;;;;;;7.68;3.85;;;;;;;;;;6291460;22;20019;-77
2023/05/03 13:55:33;;;;;;;7.45;3.30;;;;;;;;;;6289617;22;20019;-76
2023/05/03 13:58:18;;;;;;;13.48;5.60;;;;;;;;;;6289991;22;20015;-78
2023/05/03 14:01:05;;;;;;;10.85;5.53;;;;;;;;;;6290937;22;20015;-78
2023/05/03 14:03:50;;;;;;;5.63;3.00;;;;;;;;;;6288884;22;20345;-82
2023/05/03 14:06:36;;;;;;;9.80;4.88;;;;;;;;;;6287901;22;20019;-77
2023/05/03 14:09:22;;;;;;;8.73;3.40;;;;;;;;;;6288385;22;20015;-79
2023/05/03 14:12:07;;;;;;;7.40;4.05;;;;;;;;;;6287634;22;20020;-79
2023/05/03 14:14:54;;;;;;;5.25;2.42;;;;;;;;;;6287229;22;20341;-74
2023/05/03 14:17:48;;;;;;;5.90;2.75;;;;;;;;;;6285882;22;20019;-77
2023/05/03 14:20:33;;;;;;;4.03;2.60;;;;;;;;;;6288939;22;20015;-75
2023/05/03 14:23:25;;;;;;;3.10;2.30;;;;;;;;;;6286526;22;20019;-76
2023/05/03 14:26:16;;;;;;;4.28;2.47;;;;;;;;;;6289218;22;20433;-76
2023/05/03 14:29:04;;;;;;;5.32;2.40;;;;;;;;;;6282136;22;20016;-76
2023/05/03 14:31:49;;;;;;;6.75;2.38;;;;;;;;;;6288735;22;20016;-76
2023/05/03 14:34:41;;;;;;;4.63;2.22;;;;;;;;;;6287430;22;20015;-75
2023/05/03 14:37:29;;;;;;;6.95;2.20;;;;;;;;;;6288789;22;20019;-75
2023/05/03 14:40:19;;;;;;;3.58;2.28;;;;;;;;;;6288862;22;20016;-76
2023/05/03 14:43:06;;;;;;;7.97;2.97;;;;;;;;;;6289243;22;20019;-76
2023/05/03 14:45:51;;;;;;;8.10;2.40;;;;;;;;;;6289215;22;20016;-80
2023/05/03 14:48:38;;;;;;;10.10;2.60;;;;;;;;;;6290706;22;20015;-79
2023/05/03 14:51:23;;;;;;;3.83;2.42;;;;;;;;;;6292698;22;20015;-80
2023/05/03 14:54:10;;;;;;;5.45;2.33;;;;;;;;;;6289055;22;20437;-78
2023/05/03 14:56:56;;;;;;;5.93;2.47;;;;;;;;;;6290644;22;20063;-80
2023/05/03 14:59:41;;;;;;;4.07;2.42;;;;;;;;;;6291897;22;20016;-80
2023/05/03 15:02:27;;;;;;;3.25;2.05;;;;;;;;;;6292453;22;20019;-81
2023/05/03 15:05:12;;;;;;;6.65;2.90;;;;;;;;;;6289119;22;20019;-82
2023/05/03 15:07:58;;;;;;;4.57;2.28;;;;;;;;;;6293910;22;20016;-82
2023/05/03 15:10:45;;;;;;;5.00;2.30;;;;;;;;;;6295568;22;20015;-82
2023/05/03 15:13:30;;;;;;;4.72;2.30;;;;;;;;;;6295694;22;20015;-80
2023/05/03 15:16:21;;;;;;;4.05;2.30;;;;;;;;;;6295710;22;20015;-81
2023/05/03 15:19:07;;;;;;;3.67;2.40;;;;;;;;;;6295041;22;20012;-80
2023/05/03 15:21:52;;;;;;;5.70;2.20;;;;;;;;;;6297350;22;20015;-80
2023/05/03 15:24:38;;;;;;;3.90;2.25;;;;;;;;;;6271743;22;20027;-80
2023/05/03 15:27:24;;;;;;;5.40;2.67;;;;;;;;;;6289087;22;20015;-80
2023/05/03 15:30:17;;;;;;;7.45;2.40;;;;;;;;;;6286979;22;20020;-82
2023/05/03 15:33:03;;;;;;;4.18;2.40;;;;;;;;;;6288031;22;20020;-80
2023/05/03 15:35:55;;;;;;;3.90;2.58;;;;;;;;;;6287955;22;20019;-78
2023/05/03 15:38:46;;;;;;;5.03;2.90;;;;;;;;;;6288568;22;20016;-80
2023/05/03 15:41:32;;;;;;;5.03;2.67;;;;;;;;;;6288295;22;20016;-78
2023/05/03 15:44:18;;;;;;;6.97;2.40;;;;;;;;;;6287842;22;20019;-81
2023/05/03 15:47:09;;;;;;;9.55;2.92;;;;;;;;;;6288688;22;20016;-80
2023/05/03 15:50:00;;;;;;;3.63;2.50;;;;;;;;;;6288278;22;20015;-81
2023/05/03 15:52:45;;;;;;;5.63;3.00;;;;;;;;;;6288952;22;20020;-80
2023/05/03 15:55:44;;;;;;;4.47;2.80;;;;;;;;;;6287249;22;20016;-80
2023/05/03 15:58:30;;;;;;;6.20;2.65;;;;;;;;;;6287730;22;20016;-81
2023/05/03 16:01:22;;;;;;;5.72;2.95;;;;;;;;;;6287807;22;20019;-81
2023/05/03 16:04:13;;;;;;;5.90;2.38;;;;;;;;;;6287746;22;20341;-80
2023/05/03 16:07:07;;;;;;;5.07;2.97;;;;;;;;;;6288164;22;20341;-80
2023/05/03 16:09:58;;;;;;;6.67;2.97;;;;;;;;;;6287997;22;20016;-80
2023/05/03 16:12:43;;;;;;;7.55;2.95;;;;;;;;;;6290323;22;20228;-80
2023/05/03 16:15:30;;;;;;;3.90;2.53;;;;;;;;;;6292165;22;20016;-80
2023/05/03 16:18:23;;;;;;;5.80;2.17;;;;;;;;;;6294852;22;20020;-81
2023/05/03 16:21:10;;;;;;;10.18;2.78;;;;;;;;;;6292516;22;20016;-79
2023/05/03 16:23:59;;;;;;;5.40;2.30;;;;;;;;;;6289760;22;20016;-80
2023/05/03 16:26:51;;;;;;;6.30;2.45;;;;;;;;;;6288222;22;20024;-80
2023/05/03 16:29:37;;;;;;;4.78;2.25;;;;;;;;;;6279626;22;20016;-80
2023/05/03 16:32:23;;;;;;;4.68;2.65;;;;;;;;;;6286519;22;20330;-83
2023/05/03 16:35:14;;;;;;;4.60;2.60;;;;;;;;;;6287982;22;20019;-80
2023/05/03 16:38:01;;;;;;;4.28;2.80;;;;;;;;;;6287496;22;20016;-81
2023/05/03 16:40:47;;;;;;;7.13;3.70;;;;;;;;;;6288003;22;20015;-82
2023/05/03 16:43:33;;;;;;;7.22;3.15;;;;;;;;;;6287449;22;20023;-76
2023/05/03 16:46:25;;;;;;;10.13;4.15;;;;;;;;;;6287856;22;20011;-77
2023/05/03 16:49:15;;;;;;;6.35;3.13;;;;;;;;;;6287473;22;20349;-78